createdAt,value
2019-01-19T00:02:26.588Z,3.97
2019-01-19T00:05:55.650Z,4.83
2019-01-19T00:08:48.576Z,4.37
2019-01-19T00:11:56.764Z,3.63
2019-01-19T00:14:45.793Z,4.47
2019-01-19T00:18:12.392Z,4.20
2019-01-19T00:21:38.851Z,4.50
2019-01-19T00:24:31.294Z,4.50
2019-01-19T00:27:38.757Z,4.93
2019-01-19T00:30:56.233Z,4.00
2019-01-19T00:34:01.804Z,3.87
2019-01-19T00:36:57.558Z,4.43
2019-01-19T00:40:03.165Z,5.03
2019-01-19T00:43:02.195Z,4.30
2019-01-19T00:46:22.140Z,4.37
2019-01-19T00:49:28.720Z,4.73
2019-01-19T00:53:00.885Z,4.47
2019-01-19T00:56:11.865Z,5.30
2019-01-19T00:59:12.524Z,4.30
2019-01-19T01:02:16.687Z,4.73
2019-01-19T01:05:29.091Z,5.10
2019-01-19T01:08:48.684Z,5.03
2019-01-19T01:11:57.824Z,5.13
2019-01-19T01:15:18.449Z,4.77
2019-01-19T01:17:59.483Z,4.73
2019-01-19T01:21:04.944Z,4.70
2019-01-19T01:23:57.826Z,4.93
2019-01-19T01:26:55.317Z,4.87
2019-01-19T01:30:06.097Z,5.10
2019-01-19T01:32:58.005Z,4.30
2019-01-19T01:36:30.222Z,4.67
2019-01-19T01:39:29.825Z,4.30
2019-01-19T01:42:51.166Z,5.00
2019-01-19T01:46:17.388Z,4.93
2019-01-19T01:49:24.505Z,5.53
2019-01-19T01:52:31.320Z,4.53
2019-01-19T01:55:15.897Z,5.10
2019-01-19T01:58:25.291Z,5.40
2019-01-19T02:01:25.601Z,5.17
2019-01-19T02:04:25.921Z,4.57
2019-01-19T02:07:21.271Z,5.53
2019-01-19T02:10:21.054Z,5.57
2019-01-19T02:13:03.955Z,5.33
2019-01-19T02:16:21.356Z,5.27
2019-01-19T02:19:36.573Z,5.53
2019-01-19T02:22:41.340Z,5.03
2019-01-19T02:25:49.370Z,5.23
2019-01-19T02:28:54.247Z,5.57
2019-01-19T02:31:59.788Z,6.03
2019-01-19T02:34:42.709Z,6.63
2019-01-19T02:37:38.030Z,5.27
2019-01-19T02:41:06.887Z,5.43
2019-01-19T02:43:58.509Z,5.57
2019-01-19T02:47:26.384Z,5.23
2019-01-19T02:50:39.159Z,5.43
2019-01-19T02:53:48.827Z,5.30
2019-01-19T02:56:35.750Z,5.70
2019-01-19T02:59:29.795Z,5.40
2019-01-19T03:02:28.864Z,5.77
2019-01-19T03:05:10.340Z,5.40
2019-01-19T03:08:16.773Z,5.17
2019-01-19T03:11:25.361Z,5.67
2019-01-19T03:14:23.810Z,5.70
2019-01-19T03:17:35.129Z,5.97
2019-01-19T03:20:45.640Z,5.30
2019-01-19T03:23:56.421Z,5.90
2019-01-19T03:27:01.971Z,5.53
2019-01-19T03:29:46.470Z,5.97
2019-01-19T03:32:42.822Z,5.73
2019-01-19T03:36:04.117Z,6.20
2019-01-19T03:39:02.974Z,5.67
2019-01-19T03:42:13.470Z,6.30
2019-01-19T03:45:33.275Z,5.27
2019-01-19T03:48:36.335Z,5.43
2019-01-19T03:51:19.118Z,6.20
2019-01-19T03:54:36.410Z,5.37
2019-01-19T03:57:24.637Z,6.07
2019-01-19T04:00:36.637Z,5.50
2019-01-19T04:03:46.258Z,5.50
2019-01-19T04:06:44.730Z,6.10
2019-01-19T04:09:31.039Z,6.43
2019-01-19T04:12:59.978Z,5.43
2019-01-19T04:16:20.313Z,5.33
2019-01-19T04:19:40.481Z,5.53
2019-01-19T04:22:42.117Z,5.57
2019-01-19T04:25:42.726Z,5.23
2019-01-19T04:28:14.815Z,6.23
2019-01-19T04:30:44.416Z,6.33
2019-01-19T04:33:14.105Z,6.33
2019-01-19T04:35:43.692Z,6.23
2019-01-19T04:38:13.270Z,6.27
2019-01-19T04:40:42.855Z,5.87
2019-01-19T04:43:13.362Z,6.57
2019-01-19T04:45:42.955Z,6.10
2019-01-19T04:48:12.610Z,5.70
2019-01-19T04:50:42.202Z,6.27
2019-01-19T04:53:11.783Z,6.13
2019-01-19T04:55:41.381Z,6.43
2019-01-19T04:58:10.968Z,6.20
2019-01-19T05:00:41.561Z,6.17
2019-01-19T05:03:11.122Z,5.37
2019-01-19T05:05:40.688Z,5.97
2019-01-19T05:08:10.281Z,6.57
2019-01-19T05:10:39.837Z,5.57
2019-01-19T05:13:09.417Z,6.63
2019-01-19T05:15:39.072Z,5.93
2019-01-19T05:18:09.444Z,6.23
2019-01-19T05:20:41.453Z,7.33
2019-01-19T05:23:11.112Z,6.47
2019-01-19T05:25:40.661Z,5.97
2019-01-19T05:28:10.210Z,5.47
2019-01-19T05:30:39.783Z,5.87
2019-01-19T05:33:09.433Z,6.10
2019-01-19T05:35:39.006Z,6.07
2019-01-19T05:38:08.574Z,6.37
2019-01-19T05:40:38.163Z,5.93
2019-01-19T05:43:07.826Z,5.83
2019-01-19T05:45:37.462Z,6.77
2019-01-19T05:48:08.524Z,5.93
2019-01-19T05:50:38.140Z,5.70
2019-01-19T05:53:07.729Z,5.80
2019-01-19T05:55:37.257Z,6.10
2019-01-19T05:58:06.885Z,5.67
2019-01-19T06:00:37.290Z,6.27
2019-01-19T06:03:07.816Z,6.77
2019-01-19T06:05:39.043Z,5.77
2019-01-19T06:08:08.602Z,6.23
2019-01-19T06:10:38.171Z,6.53
2019-01-19T06:13:07.763Z,6.47
2019-01-19T06:15:37.365Z,5.73
2019-01-19T06:18:08.564Z,5.97
2019-01-19T06:20:38.153Z,6.43
2019-01-19T06:23:07.767Z,5.90
2019-01-19T06:25:37.327Z,5.73
2019-01-19T06:28:06.882Z,5.73
2019-01-19T06:30:36.455Z,6.43
2019-01-19T06:33:07.620Z,5.70
2019-01-19T06:35:37.257Z,6.17
2019-01-19T06:38:06.808Z,6.27
2019-01-19T06:40:36.347Z,5.67
2019-01-19T06:43:05.968Z,6.37
2019-01-19T06:45:35.552Z,5.53
2019-01-19T06:48:07.497Z,5.87
2019-01-19T06:50:37.050Z,6.17
2019-01-19T06:53:06.630Z,5.50
2019-01-19T06:55:39.038Z,6.10
2019-01-19T06:58:08.603Z,5.80
2019-01-19T07:00:38.218Z,5.83
2019-01-19T07:03:07.772Z,5.33
2019-01-19T07:05:37.372Z,6.10
2019-01-19T07:08:06.953Z,6.20
2019-01-19T07:10:36.519Z,5.73
2019-01-19T07:13:06.109Z,5.13
2019-01-19T07:15:35.677Z,5.93
2019-01-19T07:18:05.294Z,5.73
2019-01-19T07:20:34.857Z,6.70
2019-01-19T07:23:04.377Z,5.93
2019-01-19T07:25:34.833Z,5.43
2019-01-19T07:28:04.401Z,5.40
2019-01-19T07:30:35.608Z,6.23
2019-01-19T07:33:05.359Z,5.47
2019-01-19T07:35:34.948Z,5.63
2019-01-19T07:38:04.507Z,5.63
2019-01-19T07:40:34.065Z,6.13
2019-01-19T07:43:07.697Z,6.07
2019-01-19T07:45:37.538Z,5.70
2019-01-19T07:48:08.834Z,5.77
2019-01-19T07:50:39.438Z,6.20
2019-01-19T07:53:09.034Z,5.47
2019-01-19T07:55:38.609Z,6.07
2019-01-19T07:58:08.195Z,5.77
2019-01-19T08:00:37.855Z,5.40
2019-01-19T08:03:07.395Z,6.10
2019-01-19T08:05:38.372Z,5.87
2019-01-19T08:08:07.953Z,5.30
2019-01-19T08:10:38.130Z,5.27
2019-01-19T08:13:07.681Z,5.60
2019-01-19T08:15:37.277Z,5.50
2019-01-19T08:18:06.940Z,5.80
2019-01-19T08:20:36.523Z,5.70
2019-01-19T08:23:06.121Z,5.13
2019-01-19T08:25:38.648Z,5.33
2019-01-19T08:28:08.218Z,5.47
2019-01-19T08:30:37.784Z,5.70
2019-01-19T08:33:07.359Z,5.80
2019-01-19T08:35:38.153Z,6.00
2019-01-19T08:38:07.713Z,5.23
2019-01-19T08:40:37.369Z,5.40
2019-01-19T08:43:21.829Z,4.63
2019-01-19T08:45:51.393Z,5.67
2019-01-19T08:48:21.361Z,5.40
2019-01-19T08:50:50.961Z,5.70
2019-01-19T08:53:20.565Z,5.60
2019-01-19T08:55:50.161Z,5.10
2019-01-19T08:58:19.754Z,5.63
2019-01-19T09:00:49.318Z,5.23
2019-01-19T09:03:18.885Z,5.67
2019-01-19T09:05:48.480Z,5.53
2019-01-19T09:08:18.079Z,5.23
2019-01-19T09:10:47.656Z,5.27
2019-01-19T09:13:17.246Z,5.67
2019-01-19T09:15:46.850Z,5.27
2019-01-19T09:18:16.426Z,6.15
2019-01-19T09:20:46.002Z,5.57
2019-01-19T09:23:22.776Z,5.30
2019-01-19T09:25:52.456Z,5.73
2019-01-19T09:28:22.024Z,5.90
2019-01-19T09:30:51.584Z,5.47
2019-01-19T09:33:21.180Z,5.43
2019-01-19T09:35:52.392Z,5.03
2019-01-19T09:38:22.018Z,5.13
2019-01-19T09:40:52.585Z,5.33
2019-01-19T09:43:22.101Z,4.83
2019-01-19T09:45:51.731Z,4.83
2019-01-19T09:48:21.319Z,4.00
2019-01-19T09:50:50.946Z,4.60
2019-01-19T09:53:20.540Z,4.63
2019-01-19T09:55:50.147Z,4.57
2019-01-19T09:58:19.768Z,4.43
2019-01-19T10:00:49.366Z,4.60
2019-01-19T10:03:18.982Z,5.23
2019-01-19T10:05:48.576Z,4.40
2019-01-19T10:08:18.166Z,4.33
2019-01-19T10:10:47.804Z,4.83
2019-01-19T10:13:19.128Z,5.43
2019-01-19T10:15:48.884Z,4.37
2019-01-19T10:18:20.121Z,4.80
2019-01-19T10:20:49.722Z,3.97
2019-01-19T10:23:20.353Z,4.33
2019-01-19T10:25:49.948Z,4.00
2019-01-19T10:28:19.558Z,4.27
2019-01-19T10:31:05.000Z,4.10
2019-01-19T10:33:38.343Z,3.97
2019-01-19T10:36:07.958Z,4.10
2019-01-19T10:38:37.525Z,4.40
2019-01-19T10:41:07.121Z,4.83
2019-01-19T10:43:36.746Z,3.80
2019-01-19T10:46:06.451Z,4.13
2019-01-19T10:48:36.140Z,4.07
2019-01-19T10:51:06.107Z,4.10
2019-01-19T10:53:35.688Z,3.90
2019-01-19T10:56:05.388Z,3.60
2019-01-19T10:58:35.018Z,3.50
2019-01-19T11:01:04.720Z,4.07
2019-01-19T11:03:34.374Z,3.87
2019-01-19T11:06:05.092Z,3.93
2019-01-19T11:08:34.724Z,3.40
2019-01-19T11:11:04.375Z,3.97
2019-01-19T11:13:34.068Z,3.97
2019-01-19T11:16:03.656Z,3.60
2019-01-19T11:18:34.959Z,3.83
2019-01-19T11:21:05.548Z,3.40
2019-01-19T11:23:39.763Z,3.17
2019-01-19T11:26:06.536Z,3.30
2019-01-19T11:28:36.298Z,3.27
2019-01-19T11:31:05.968Z,3.37
2019-01-19T11:33:35.592Z,3.13
2019-01-19T11:36:05.274Z,3.67
2019-01-19T11:38:34.948Z,3.30
2019-01-19T11:41:04.634Z,3.80
2019-01-19T11:43:34.323Z,3.27
2019-01-19T11:46:04.041Z,3.63
2019-01-19T11:48:33.669Z,3.07
2019-01-19T11:51:03.390Z,3.00
2019-01-19T11:53:33.049Z,3.13
2019-01-19T11:56:02.637Z,3.10
2019-01-19T11:58:32.410Z,3.50
2019-01-19T12:01:02.068Z,3.10
2019-01-19T12:03:31.707Z,3.10
2019-01-19T12:06:03.114Z,2.97
2019-01-19T12:08:32.865Z,3.13
2019-01-19T12:11:02.599Z,3.50
2019-01-19T12:13:34.790Z,2.60
2019-01-19T12:16:04.553Z,2.83
2019-01-19T12:18:34.501Z,3.23
2019-01-19T12:21:04.324Z,2.80
2019-01-19T12:23:33.961Z,3.30
2019-01-19T12:26:03.547Z,2.60
2019-01-19T12:28:33.105Z,2.90
2019-01-19T12:31:02.786Z,3.60
2019-01-19T12:33:32.514Z,2.73
2019-01-19T12:36:02.188Z,3.30
2019-01-19T12:38:31.805Z,3.17
2019-01-19T12:41:01.521Z,3.00
2019-01-19T12:43:31.181Z,2.90
2019-01-19T12:46:03.349Z,3.00
2019-01-19T12:48:32.961Z,3.00
2019-01-19T12:51:05.004Z,2.70
2019-01-19T12:53:34.707Z,2.80
2019-01-19T12:56:04.447Z,2.57
2019-01-19T12:58:34.098Z,2.40
2019-01-19T13:01:03.826Z,3.13
2019-01-19T13:03:33.455Z,3.20
2019-01-19T13:06:25.188Z,2.40
2019-01-19T13:08:55.112Z,2.77
2019-01-19T13:12:21.328Z,2.80
2019-01-19T13:15:01.310Z,2.90
2019-01-19T13:18:15.882Z,2.90
2019-01-19T13:21:27.891Z,2.30
2019-01-19T13:24:36.314Z,2.63
2019-01-19T13:27:35.135Z,2.47
2019-01-19T13:31:00.130Z,2.77
2019-01-19T13:33:49.271Z,2.20
2019-01-19T13:36:58.962Z,2.70
2019-01-19T13:39:49.179Z,2.77
2019-01-19T13:42:58.353Z,2.20
2019-01-19T13:46:07.261Z,2.47
2019-01-19T13:49:06.441Z,2.60
2019-01-19T13:52:04.509Z,2.60
2019-01-19T13:54:54.150Z,2.10
2019-01-19T13:57:52.026Z,2.50
2019-01-19T14:01:21.068Z,3.67
2019-01-19T14:04:22.661Z,3.80
2019-01-19T14:07:45.886Z,4.07
2019-01-19T14:10:49.558Z,3.33
2019-01-19T14:14:11.112Z,3.63
2019-01-19T14:17:18.233Z,3.10
2019-01-19T14:20:20.640Z,3.80
2019-01-19T14:23:17.894Z,3.40
2019-01-19T14:26:38.062Z,3.73
2019-01-19T14:29:47.707Z,2.90
2019-01-19T14:32:41.876Z,3.40
2019-01-19T14:35:23.604Z,3.27
2019-01-19T14:38:41.106Z,3.27
2019-01-19T14:41:49.739Z,4.20
2019-01-19T14:44:53.033Z,3.40
2019-01-19T14:47:40.141Z,2.80
2019-01-19T14:50:39.166Z,3.10
2019-01-19T14:53:40.617Z,3.27
2019-01-19T14:56:52.089Z,4.07
2019-01-19T14:59:37.977Z,2.80
2019-01-19T15:03:01.424Z,2.97
2019-01-19T15:06:07.436Z,4.03
2019-01-19T15:09:10.683Z,3.13
2019-01-19T15:12:16.602Z,2.73
2019-01-19T15:15:19.761Z,3.07
2019-01-19T15:18:21.464Z,3.13
2019-01-19T15:21:44.756Z,2.93
2019-01-19T15:25:04.606Z,3.40
2019-01-19T15:28:01.063Z,2.20
2019-01-19T15:31:16.224Z,2.90
2019-01-19T15:34:39.318Z,2.87
2019-01-19T15:37:51.266Z,3.03
2019-01-19T15:41:17.533Z,2.90
2019-01-19T15:44:35.005Z,2.87
2019-01-19T15:47:37.973Z,3.87
2019-01-19T15:51:04.327Z,2.67
2019-01-19T15:53:45.429Z,3.97
2019-01-19T15:56:55.507Z,3.40
2019-01-19T16:00:05.721Z,3.10
2019-01-19T16:03:02.973Z,3.20
2019-01-19T16:06:02.877Z,2.97
2019-01-19T16:09:02.848Z,3.07
2019-01-19T16:12:07.672Z,2.93
2019-01-19T16:15:23.452Z,2.97
2019-01-19T16:18:21.290Z,2.37
2019-01-19T16:21:34.252Z,3.43
2019-01-19T16:24:14.749Z,3.13
2019-01-19T16:27:28.058Z,4.00
2019-01-19T16:30:25.136Z,2.80
2019-01-19T16:33:28.344Z,2.90
2019-01-19T16:36:42.660Z,4.03
2019-01-19T16:39:35.812Z,2.70
2019-01-19T16:42:44.083Z,3.17
2019-01-19T16:45:51.338Z,3.00
2019-01-19T16:49:06.604Z,2.30
2019-01-19T16:52:10.193Z,2.60
2019-01-19T16:54:56.220Z,2.97
2019-01-19T16:58:09.609Z,2.50
2019-01-19T17:01:17.771Z,3.00
2019-01-19T17:04:19.996Z,2.90
2019-01-19T17:07:12.222Z,3.03
2019-01-19T17:10:04.862Z,2.77
2019-01-19T17:12:48.232Z,2.67
2019-01-19T17:16:02.424Z,2.07
2019-01-19T17:19:12.879Z,2.60
2019-01-19T17:22:16.253Z,3.13
2019-01-19T17:25:24.477Z,2.57
2019-01-19T17:28:44.666Z,2.60
2019-01-19T17:32:04.745Z,2.70
2019-01-19T17:34:57.248Z,2.67
2019-01-19T17:37:55.521Z,2.67
2019-01-19T17:40:53.019Z,2.40
2019-01-19T17:43:53.701Z,2.77
2019-01-19T17:46:58.271Z,2.60
2019-01-19T17:50:00.267Z,2.53
2019-01-19T17:53:16.475Z,2.63
2019-01-19T17:56:06.445Z,2.67
2019-01-19T17:59:03.349Z,2.60
2019-01-19T18:02:10.320Z,2.70
2019-01-19T18:04:53.681Z,2.43
2019-01-19T18:08:11.119Z,2.80
2019-01-19T18:11:34.601Z,2.47
2019-01-19T18:14:30.415Z,2.30
2019-01-19T18:17:29.019Z,2.20
2019-01-19T18:20:32.730Z,2.70
2019-01-19T18:23:38.517Z,2.60
2019-01-19T18:27:01.697Z,2.70
2019-01-19T18:29:55.860Z,2.50
2019-01-19T18:33:29.734Z,2.77
2019-01-19T18:36:32.609Z,2.40
2019-01-19T18:39:26.384Z,3.90
2019-01-19T18:42:46.324Z,3.63
2019-01-19T18:46:00.234Z,4.67
2019-01-19T18:49:42.033Z,4.57
2019-01-19T18:53:01.177Z,4.70
2019-01-19T18:56:18.126Z,5.03
2019-01-19T18:59:13.461Z,5.90
2019-01-19T19:02:13.220Z,7.67
2019-01-19T19:05:30.324Z,6.97
2019-01-19T19:08:35.771Z,6.67
2019-01-19T19:11:42.732Z,5.70
2019-01-19T19:14:50.498Z,6.30
2019-01-19T19:17:56.117Z,5.50
2019-01-19T19:21:07.101Z,5.87
2019-01-19T19:24:26.955Z,6.07
2019-01-19T19:27:36.953Z,4.43
2019-01-19T19:30:21.912Z,5.73
2019-01-19T19:33:39.513Z,5.33
2019-01-19T19:36:49.215Z,5.60
2019-01-19T19:39:48.086Z,6.47
2019-01-19T19:42:57.963Z,5.17
2019-01-19T19:45:56.703Z,5.70
2019-01-19T19:49:13.477Z,5.27
2019-01-19T19:52:01.377Z,4.77
2019-01-19T19:54:33.997Z,4.20
2019-01-19T19:57:04.735Z,5.30
2019-01-19T19:59:34.369Z,5.07
2019-01-19T20:02:04.023Z,4.53
2019-01-19T20:04:33.653Z,4.53
2019-01-19T20:07:03.284Z,5.40
2019-01-19T20:09:32.902Z,4.57
2019-01-19T20:12:07.441Z,5.20
2019-01-19T20:14:37.194Z,5.80
2019-01-19T20:17:06.942Z,5.90
2019-01-19T20:19:36.629Z,4.83
2019-01-19T20:22:06.297Z,4.83
2019-01-19T20:24:35.958Z,4.87
2019-01-19T20:27:05.627Z,4.90
2019-01-19T20:29:35.689Z,4.50
2019-01-19T20:32:05.653Z,4.10
2019-01-19T20:34:35.277Z,4.93
2019-01-19T20:37:05.006Z,4.13
2019-01-19T20:39:34.627Z,3.97
2019-01-19T20:42:04.241Z,4.00
2019-01-19T20:44:33.846Z,4.53
2019-01-19T20:47:05.098Z,4.27
2019-01-19T20:49:34.759Z,3.70
2019-01-19T20:52:04.382Z,4.10
2019-01-19T20:54:34.016Z,3.60
2019-01-19T20:57:03.652Z,4.47
2019-01-19T20:59:33.281Z,4.13
2019-01-19T21:02:03.742Z,4.50
2019-01-19T21:04:33.353Z,4.10
2019-01-19T21:07:02.997Z,5.00
2019-01-19T21:09:33.645Z,4.10
2019-01-19T21:12:04.075Z,4.53
2019-01-19T21:14:33.912Z,4.20
2019-01-19T21:17:03.897Z,3.73
2019-01-19T21:19:34.545Z,3.33
2019-01-19T21:22:04.182Z,4.13
2019-01-19T21:24:34.050Z,3.77
2019-01-19T21:27:03.806Z,3.90
2019-01-19T21:29:33.447Z,3.73
2019-01-19T21:32:03.203Z,3.33
2019-01-19T21:34:32.946Z,3.73
2019-01-19T21:37:02.606Z,3.37
2019-01-19T21:39:32.234Z,4.30
2019-01-19T21:42:02.069Z,3.53
2019-01-19T21:44:33.501Z,3.77
2019-01-19T21:47:03.269Z,3.17
2019-01-19T21:49:32.882Z,4.10
2019-01-19T21:52:02.681Z,3.17
2019-01-19T21:54:32.395Z,3.53
2019-01-19T21:57:01.995Z,3.90
2019-01-19T21:59:31.740Z,3.47
2019-01-19T22:02:01.505Z,3.30
2019-01-19T22:04:31.093Z,2.97
2019-01-19T22:07:00.702Z,4.07
2019-01-19T22:09:30.294Z,3.50
2019-01-19T22:11:59.909Z,3.20
2019-01-19T22:14:29.517Z,3.60
2019-01-19T22:16:59.113Z,4.33
2019-01-19T22:19:28.687Z,3.77
2019-01-19T22:21:58.280Z,3.37
2019-01-19T22:24:27.891Z,3.60
2019-01-19T22:26:57.873Z,3.63
2019-01-19T22:29:27.585Z,3.90
2019-01-19T22:31:57.161Z,3.67
2019-01-19T22:34:26.773Z,3.73
2019-01-19T22:36:56.409Z,3.37
2019-01-19T22:39:26.056Z,3.40
2019-01-19T22:41:55.714Z,2.83
2019-01-19T22:44:25.322Z,3.03
2019-01-19T22:46:54.931Z,2.90
2019-01-19T22:49:24.547Z,3.47
2019-01-19T22:51:54.142Z,3.23
2019-01-19T22:54:23.848Z,3.10
2019-01-19T22:56:53.587Z,3.27
2019-01-19T22:59:23.190Z,3.33
2019-01-19T23:02:05.366Z,2.80
2019-01-19T23:04:34.981Z,3.13
2019-01-19T23:07:04.594Z,3.20
2019-01-19T23:09:35.525Z,3.00
2019-01-19T23:12:05.169Z,2.80
2019-01-19T23:14:35.823Z,3.40
2019-01-19T23:17:05.519Z,3.10
2019-01-19T23:19:35.173Z,3.43
2019-01-19T23:22:04.801Z,3.00
2019-01-19T23:24:34.429Z,3.10
2019-01-19T23:27:08.669Z,3.23
2019-01-19T23:29:38.320Z,2.80
2019-01-19T23:32:07.980Z,3.23
2019-01-19T23:34:39.247Z,3.07
2019-01-19T23:37:08.874Z,2.77
2019-01-19T23:39:38.493Z,3.20
2019-01-19T23:42:08.090Z,2.47
2019-01-19T23:44:37.640Z,2.87
2019-01-19T23:47:07.281Z,2.70
2019-01-19T23:49:36.909Z,2.97
2019-01-19T23:52:06.510Z,3.80
2019-01-19T23:54:36.101Z,2.30
2019-01-19T23:57:05.702Z,2.80
2019-01-19T23:59:35.349Z,2.80
